Niles, MI

8:45 AM EST on November 28, 2014 (GMT -0500)
Niles Township Michigan | Change Station
CLOSE
Current Station
Personal Weather Station
Location: Niles, MI
Elevation: 700 ft
Nearby Weather Stations

Elev 700 ft 41.77 °N, 86.26 °W | Updated 14 seconds ago

Overcast
Overcast
21.0 °F
Feels Like 21 °F
N
2.0
Wind Variable Wind from SSW
Gusts 6.0 mph

Today
High -- | Low -- °F
--% Chance of Precip.
Yesterday
High -- | Low -- °F
Precip. -- in
7:49 AM 5:16 PM
Waxing Crescent, 40% visible
Pressure 30.36 in
Visibility 10.0 miles
Clouds Overcast 9000 ft
Windchill 21 °F
Dew Point 18 °F
Humidity 87%
Rainfall 0.00 in
Snow Depth Not available.
UV 0 out of 12
Pollen .10 out of 12
Air Quality Not available.
Flu Activity Not available.
METAR KSBN 281254Z 18004KT 10SM OVC090 M07/M09 A3032 RMK AO2 SLP279 T10671094

More Conditions Fewer Conditions

Pressure 30.36 in
Visibility 10.0 miles
Clouds Overcast 9000 ft
Windchill 21 °F
Dew Point 18 °F
Humidity 87%
Rainfall 0.00 in
Snow Depth Not available.
UV 0 out of 12
Pollen .10 out of 12
Air Quality Not available.
Flu Activity Not available.
METAR KSBN 281254Z 18004KT 10SM OVC090 M07/M09 A3032 RMK AO2 SLP279 T10671094

More Conditions Fewer Conditions

10-Day Weather Forecast

Almanac

Astronomy

Nov. 28, 2014 Rise Set
Actual Time
Civil Twilight
Nautical Twilight
Astronomical Twilight
Moon
Length of Visible Light
Length of Day
Tomorrow will be .
, % of the Moon is Illuminated

Today's Extremes

State Highs State Lows

Community

WunderPhotos

Upload Photos

1,774,210 photos uploaded!

WunderBlogs® & News

Nearby

Air Quality

  Air Quality AQ Index Pollutant
Not available.

Snow Depth

Station Depth Elevation

Earthquake Activity

City Distance Mag. Time & Date
Minimum magnitude displayed is 2.5.

Coastal Water Temperatures

Place Temperature

Nearby Weather Stations